Time;durP1;ratioP1;P1;durP2;ratioP2;P2;SDS_P1;SDS_P2;PMS_P1;PMS_P2;Temp;Humidity;BMP_temperature;BMP_pressure;BME280_temperature;BME280_humidity;BME280_pressure;Samples;Min_cycle;Max_cycle;Signal;HPM_P1;HPM_P2
2021/10/20 00:02:16;;;;;;;17.30;11.70;;;;;;;14.38;100.00;100064.97;6217035;23;20008;-75
2021/10/20 00:04:41;;;;;;;19.55;11.50;;;;;;;14.38;100.00;100064.97;6192444;23;20004;-74
2021/10/20 00:07:07;;;;;;;18.10;11.95;;;;;;;14.36;100.00;100074.84;6219050;23;20009;-75
2021/10/20 00:09:32;;;;;;;17.92;11.13;;;;;;;14.38;100.00;100066.94;6216758;23;20009;-75
2021/10/20 00:11:58;;;;;;;18.65;11.18;;;;;;;14.38;100.00;100069.75;6192045;23;20008;-75
2021/10/20 00:14:23;;;;;;;17.10;12.45;;;;;;;14.36;100.00;100061.69;6217325;23;20015;-75
2021/10/20 00:16:49;;;;;;;16.67;11.55;;;;;;;14.36;100.00;100067.25;6216616;23;20098;-75
2021/10/20 00:19:15;;;;;;;17.75;12.63;;;;;;;14.35;100.00;100060.06;6218839;23;20028;-75
2021/10/20 00:21:40;;;;;;;15.93;12.02;;;;;;;14.34;100.00;100069.56;6167108;23;20009;-74
2021/10/20 00:24:06;;;;;;;16.02;11.93;;;;;;;14.33;100.00;100073.53;6191395;23;20017;-75
2021/10/20 00:26:31;;;;;;;14.25;10.00;;;;;;;14.35;100.00;100070.38;6192180;23;20017;-74
2021/10/20 00:28:57;;;;;;;17.20;11.73;;;;;;;14.35;100.00;100062.84;6191762;23;20102;-74
2021/10/20 00:31:23;;;;;;;16.58;10.85;;;;;;;14.36;100.00;100078.44;6191586;23;20008;-75
2021/10/20 00:33:48;;;;;;;15.88;10.82;;;;;;;14.36;100.00;100075.66;6218717;23;20012;-74
2021/10/20 00:36:14;;;;;;;17.00;11.77;;;;;;;14.38;100.00;100080.91;6217932;23;20005;-75
2021/10/20 00:38:39;;;;;;;22.77;10.98;;;;;;;14.40;100.00;100078.59;6191883;23;20012;-74
2021/10/20 00:41:05;;;;;;;14.82;10.02;;;;;;;14.41;100.00;100075.47;6192328;23;20009;-74
2021/10/20 00:43:30;;;;;;;13.73;10.02;;;;;;;14.42;100.00;100070.72;6191371;23;20004;-75
2021/10/20 00:45:56;;;;;;;17.85;11.43;;;;;;;14.44;100.00;100068.41;6142194;23;20012;-75
2021/10/20 00:48:21;;;;;;;15.35;10.32;;;;;;;14.45;100.00;100067.25;6216875;23;20028;-75
2021/10/20 00:50:47;;;;;;;19.17;10.80;;;;;;;14.47;100.00;100070.53;6218071;23;20010;-74
2021/10/20 00:53:12;;;;;;;15.18;9.68;;;;;;;14.47;100.00;100071.38;6191977;23;20058;-75
2021/10/20 00:55:38;;;;;;;16.25;10.70;;;;;;;14.47;100.00;100070.53;6191684;23;20008;-75
2021/10/20 00:58:03;;;;;;;17.95;9.60;;;;;;;14.46;100.00;100088.47;6191736;23;20079;-75
2021/10/20 01:00:29;;;;;;;13.30;9.75;;;;;;;14.45;100.00;100098.81;6166789;23;20005;-75
2021/10/20 01:02:54;;;;;;;15.90;10.23;;;;;;;14.45;100.00;100103.56;6218502;23;20016;-74
2021/10/20 01:05:20;;;;;;;12.02;9.48;;;;;;;14.45;100.00;100115.56;6191515;23;20013;-74
2021/10/20 01:07:46;;;;;;;15.18;9.32;;;;;;;14.42;100.00;100105.06;6167188;23;20808;-75
2021/10/20 01:10:11;;;;;;;12.88;10.15;;;;;;;14.44;100.00;100116.72;6218078;23;20013;-75
2021/10/20 01:12:37;;;;;;;13.07;9.63;;;;;;;14.42;100.00;100127.41;6191655;23;20009;-75
2021/10/20 01:15:08;;;;;;;16.90;11.00;;;;;;;14.40;100.00;100112.97;6191673;23;20031;-75
2021/10/20 01:17:33;;;;;;;13.95;9.75;;;;;;;14.39;100.00;100108.50;6218424;23;20422;-75
2021/10/20 01:19:59;;;;;;;13.85;10.27;;;;;;;14.39;100.00;100099.31;6166430;23;20058;-75
2021/10/20 01:22:24;;;;;;;14.85;10.38;;;;;;;14.40;100.00;100099.00;6220351;23;20015;-75
2021/10/20 01:24:50;;;;;;;15.60;9.52;;;;;;;14.38;100.00;100101.28;6193916;23;20016;-74
2021/10/20 01:27:15;;;;;;;12.48;9.23;;;;;;;14.39;100.00;100099.31;6193398;23;20024;-75
2021/10/20 01:29:41;;;;;;;13.68;9.50;;;;;;;14.37;100.00;100091.25;6220599;23;20012;-75
2021/10/20 01:32:06;;;;;;;12.27;10.10;;;;;;;14.37;100.00;100079.25;6192880;23;20425;-75
2021/10/20 01:34:33;;;;;;;13.70;9.30;;;;;;;14.37;100.00;100085.66;6220184;23;20009;-74
2021/10/20 01:37:01;;;;;;;13.60;9.75;;;;;;;14.40;100.00;100073.00;6220308;23;20019;-74
2021/10/20 01:39:26;;;;;;;17.50;9.40;;;;;;;14.38;100.00;100067.75;6219823;23;20008;-74
2021/10/20 01:41:52;;;;;;;14.02;9.55;;;;;;;14.41;100.00;100064.31;6193522;23;20004;-75
2021/10/20 01:44:17;;;;;;;17.58;10.80;;;;;;;14.42;100.00;100059.53;6220101;23;20063;-75
2021/10/20 01:46:43;;;;;;;15.90;8.80;;;;;;;14.42;100.00;100068.72;6219526;23;20008;-75
2021/10/20 01:49:08;;;;;;;15.45;9.73;;;;;;;14.45;100.00;100062.47;6193421;23;20004;-75
2021/10/20 01:51:34;;;;;;;14.70;9.55;;;;;;;14.46;100.00;100060.53;6144081;23;20012;-75
2021/10/20 01:53:59;;;;;;;16.48;9.20;;;;;;;14.49;100.00;100045.91;6193321;23;20462;-75
2021/10/20 01:56:25;;;;;;;16.38;9.68;;;;;;;14.49;100.00;100054.28;6220177;23;20032;-75
2021/10/20 01:58:50;;;;;;;13.27;9.43;;;;;;;14.50;100.00;100045.53;6219897;23;20007;-75
2021/10/20 02:01:16;;;;;;;18.77;9.48;;;;;;;14.50;100.00;100028.78;6219285;23;20020;-75
2021/10/20 02:03:41;;;;;;;14.32;9.82;;;;;;;14.51;100.00;100032.41;6220159;23;20434;-75
2021/10/20 02:06:10;;;;;;;13.00;9.32;;;;;;;14.51;100.00;100041.63;6193056;23;20386;-75
2021/10/20 02:08:35;;;;;;;16.83;9.32;;;;;;;14.51;100.00;100055.59;6219653;23;20043;-75
2021/10/20 02:11:01;;;;;;;14.45;9.18;;;;;;;14.50;100.00;100062.31;6193319;23;20008;-75
2021/10/20 02:13:26;;;;;;;14.65;9.40;;;;;;;14.50;100.00;100053.94;6219582;23;20118;-74
2021/10/20 02:15:52;;;;;;;15.38;10.02;;;;;;;14.52;100.00;100053.66;6167962;23;20307;-75
2021/10/20 02:18:18;;;;;;;15.15;9.88;;;;;;;14.53;100.00;100067.25;6193454;23;20303;-75
2021/10/20 02:20:43;;;;;;;14.05;9.52;;;;;;;14.55;100.00;100043.78;6219183;23;20334;-75
2021/10/20 02:23:09;;;;;;;13.63;9.60;;;;;;;14.56;100.00;100037.84;6193472;23;20019;-75
2021/10/20 02:25:34;;;;;;;18.55;10.25;;;;;;;14.58;100.00;100020.75;6168670;23;20330;-74
2021/10/20 02:28:00;;;;;;;14.90;9.65;;;;;;;14.57;100.00;100016.31;6219136;23;20008;-74
2021/10/20 02:30:25;;;;;;;14.30;9.38;;;;;;;14.59;100.00;99992.47;6193125;23;20015;-74
2021/10/20 02:32:52;;;;;;;11.80;8.30;;;;;;;14.61;100.00;100029.28;6192866;23;20013;-74
2021/10/20 02:35:17;;;;;;;12.02;9.40;;;;;;;14.61;100.00;100034.06;6192963;23;20005;-74
2021/10/20 02:37:45;;;;;;;20.30;9.65;;;;;;;14.62;100.00;100027.31;6219764;23;20329;-74
2021/10/20 02:40:11;;;;;;;14.27;8.85;;;;;;;14.64;100.00;100047.38;6219172;23;20008;-74
2021/10/20 02:42:36;;;;;;;15.07;9.55;;;;;;;14.63;100.00;100066.13;6193151;23;20107;-74
2021/10/20 02:45:02;;;;;;;12.02;8.95;;;;;;;14.64;100.00;100089.28;6219567;23;20008;-74
2021/10/20 02:47:28;;;;;;;15.18;9.55;;;;;;;14.65;100.00;100065.75;6192761;23;20016;-75
2021/10/20 02:49:53;;;;;;;19.50;10.95;;;;;;;14.67;100.00;100077.44;6219425;23;20016;-75
2021/10/20 02:52:19;;;;;;;19.05;10.25;;;;;;;14.68;100.00;100056.72;6219538;23;20011;-74
2021/10/20 02:54:44;;;;;;;18.40;10.63;;;;;;;14.69;100.00;100033.22;6219210;23;20009;-74
2021/10/20 02:57:10;;;;;;;16.85;10.02;;;;;;;14.69;100.00;100010.84;6193003;23;20008;-74
2021/10/20 02:59:35;;;;;;;16.48;10.75;;;;;;;14.70;100.00;100006.91;6219453;23;20005;-74
2021/10/20 03:02:01;;;;;;;15.75;9.20;;;;;;;14.70;100.00;100020.88;6191925;23;20008;-75
2021/10/20 03:04:26;;;;;;;18.20;10.23;;;;;;;14.71;100.00;100022.53;6193165;23;20039;-74
2021/10/20 03:06:52;;;;;;;18.77;9.90;;;;;;;14.70;100.00;100018.91;6192699;23;20008;-74
2021/10/20 03:09:17;;;;;;;18.65;10.18;;;;;;;14.71;100.00;100020.56;6218899;23;20008;-74
2021/10/20 03:11:43;;;;;;;17.70;10.30;;;;;;;14.72;100.00;100032.56;6193008;23;20004;-74
2021/10/20 03:14:09;;;;;;;16.60;10.82;;;;;;;14.74;100.00;100025.47;6218888;23;20009;-74
2021/10/20 03:16:35;;;;;;;18.95;12.02;;;;;;;14.75;100.00;100024.31;6218839;23;20065;-74
2021/10/20 03:19:00;;;;;;;22.02;10.63;;;;;;;14.74;100.00;100000.31;6219559;23;20330;-74
2021/10/20 03:21:26;;;;;;;16.33;11.20;;;;;;;14.76;100.00;99994.38;6219056;23;20334;-75
2021/10/20 03:23:51;;;;;;;16.70;9.93;;;;;;;14.76;100.00;99991.59;6218884;23;20464;-75
2021/10/20 03:26:17;;;;;;;20.98;12.15;;;;;;;14.77;100.00;99956.91;6167720;23;20112;-74
2021/10/20 03:28:42;;;;;;;21.92;11.40;;;;;;;14.75;100.00;99962.81;6218749;23;20009;-74
2021/10/20 03:31:08;;;;;;;16.48;10.43;;;;;;;14.76;100.00;99958.03;6192252;23;20555;-74
2021/10/20 03:33:33;;;;;;;18.52;12.55;;;;;;;14.77;100.00;99912.19;6192568;23;20019;-74
2021/10/20 03:35:59;;;;;;;20.23;11.65;;;;;;;14.77;100.00;99880.63;6218560;23;20012;-74
2021/10/20 03:38:24;;;;;;;15.18;10.52;;;;;;;14.76;100.00;99868.59;6192552;23;20062;-75
2021/10/20 03:40:50;;;;;;;15.75;10.32;;;;;;;14.78;100.00;99849.53;6192515;23;20013;-75
2021/10/20 03:43:15;;;;;;;21.23;11.27;;;;;;;14.78;100.00;99852.31;6217067;23;20005;-75
2021/10/20 03:45:41;;;;;;;15.13;11.02;;;;;;;14.78;100.00;99854.28;6218648;23;20012;-75
2021/10/20 03:48:06;;;;;;;14.93;10.50;;;;;;;14.77;100.00;99838.69;6167286;23;20333;-75
2021/10/20 03:50:32;;;;;;;18.23;11.68;;;;;;;14.75;100.00;99827.84;6166930;23;20071;-75
2021/10/20 03:52:57;;;;;;;16.67;10.88;;;;;;;14.77;100.00;99821.91;6219188;23;20589;-75
2021/10/20 03:55:23;;;;;;;18.00;11.95;;;;;;;14.75;100.00;99825.03;6219169;23;20022;-75
2021/10/20 03:57:48;;;;;;;15.63;10.43;;;;;;;14.74;100.00;99823.41;6218664;23;20000;-75
2021/10/20 04:00:15;;;;;;;17.27;11.18;;;;;;;14.73;100.00;99821.75;6217034;23;20008;-75
2021/10/20 04:02:44;;;;;;;16.38;10.75;;;;;;;14.73;100.00;99832.94;6192134;23;20005;-75
2021/10/20 04:05:11;;;;;;;18.02;12.00;;;;;;;14.72;100.00;99834.91;6218585;23;20008;-75
2021/10/20 04:07:38;;;;;;;19.33;11.85;;;;;;;14.70;100.00;99855.97;6218793;23;20012;-74
2021/10/20 04:10:05;;;;;;;21.90;11.77;;;;;;;14.69;100.00;99857.16;6218489;23;20009;-75
2021/10/20 04:12:30;;;;;;;23.33;12.02;;;;;;;14.68;100.00;99875.06;6218735;23;20011;-76
2021/10/20 04:14:56;;;;;;;20.25;12.70;;;;;;;14.68;100.00;99880.63;6192111;23;20009;-75
2021/10/20 04:17:21;;;;;;;21.27;13.05;;;;;;;14.67;100.00;99884.59;6218469;23;20016;-75
2021/10/20 04:19:47;;;;;;;17.27;11.50;;;;;;;14.67;100.00;99877.03;6217191;23;20385;-75
2021/10/20 04:22:12;;;;;;;19.58;12.10;;;;;;;14.67;100.00;99881.81;6218785;23;20013;-75
2021/10/20 04:24:38;;;;;;;21.05;12.80;;;;;;;14.68;100.00;99881.47;6218422;23;20012;-75
2021/10/20 04:27:03;;;;;;;21.88;12.82;;;;;;;14.69;100.00;99885.09;6142590;23;20016;-75
2021/10/20 04:29:29;;;;;;;26.25;14.65;;;;;;;14.71;100.00;99882.78;6218702;23;20063;-75
2021/10/20 04:31:54;;;;;;;22.27;14.18;;;;;;;14.70;100.00;99895.91;6166594;23;20013;-74
2021/10/20 04:34:20;;;;;;;23.38;14.82;;;;;;;14.73;100.00;99883.25;6192163;23;20004;-75
2021/10/20 04:36:45;;;;;;;22.45;13.85;;;;;;;14.74;100.00;99888.50;6192291;23;20008;-75
2021/10/20 04:39:11;;;;;;;24.17;14.85;;;;;;;14.76;100.00;99888.16;6191676;23;20024;-75
2021/10/20 04:41:37;;;;;;;24.33;13.95;;;;;;;14.77;100.00;99892.59;6192410;23;20389;-74
2021/10/20 04:44:02;;;;;;;24.25;15.40;;;;;;;14.80;100.00;99883.53;6218334;23;20068;-75
2021/10/20 04:46:28;;;;;;;22.67;13.77;;;;;;;14.80;100.00;99872.38;6217820;23;20405;-75
2021/10/20 04:48:54;;;;;;;23.48;13.98;;;;;;;14.81;100.00;99868.41;6218748;23;20009;-75
2021/10/20 04:51:19;;;;;;;23.77;15.50;;;;;;;14.84;100.00;99869.72;6192117;23;20019;-75
2021/10/20 04:53:45;;;;;;;25.17;14.60;;;;;;;14.85;100.00;99862.94;6191611;23;20005;-75
2021/10/20 04:56:11;;;;;;;24.33;14.25;;;;;;;14.85;100.00;99869.38;6217965;23;20011;-74
2021/10/20 04:58:36;;;;;;;27.70;16.48;;;;;;;14.86;100.00;99873.81;6192008;23;20008;-74
2021/10/20 05:01:01;;;;;;;24.05;15.65;;;;;;;14.88;100.00;99871.50;6166718;23;20012;-71
2021/10/20 05:03:27;;;;;;;25.33;14.32;;;;;;;14.88;100.00;99867.88;6192195;23;20020;-70
2021/10/20 05:05:52;;;;;;;24.92;14.35;;;;;;;14.85;100.00;99871.34;6218316;23;20229;-71
2021/10/20 05:08:18;;;;;;;20.52;13.65;;;;;;;14.84;100.00;99866.91;6166936;23;20012;-71
2021/10/20 05:10:43;;;;;;;21.70;13.73;;;;;;;14.81;100.00;99862.81;6142526;23;20016;-70
2021/10/20 05:13:09;;;;;;;22.40;13.80;;;;;;;14.78;100.00;99866.28;6192084;23;20009;-71
2021/10/20 05:15:34;;;;;;;23.38;13.57;;;;;;;14.77;100.00;99870.25;6166322;23;20008;-71
2021/10/20 05:18:00;;;;;;;27.85;15.60;;;;;;;14.74;100.00;99862.53;6191885;23;20004;-71
2021/10/20 05:20:25;;;;;;;25.58;14.25;;;;;;;14.73;100.00;99863.69;6191751;23;20078;-71
2021/10/20 05:22:51;;;;;;;25.90;14.70;;;;;;;14.72;100.00;99864.84;6191494;23;20012;-71
2021/10/20 05:25:17;;;;;;;22.02;13.48;;;;;;;14.71;100.00;99860.44;6191861;23;20452;-72
2021/10/20 05:27:43;;;;;;;25.40;13.88;;;;;;;14.72;100.00;99857.28;6191773;23;20009;-71
2021/10/20 05:30:09;;;;;;;21.83;13.52;;;;;;;14.73;100.00;99866.47;6191119;23;20009;-71
2021/10/20 05:32:34;;;;;;;27.40;15.15;;;;;;;14.74;100.00;99854.16;6191823;23;20068;-71
2021/10/20 05:35:00;;;;;;;20.25;13.55;;;;;;;14.75;100.00;99853.81;6191415;23;20008;-71
2021/10/20 05:37:25;;;;;;;21.45;13.82;;;;;;;14.75;100.00;99848.22;6191855;23;20553;-72
2021/10/20 05:39:52;;;;;;;28.42;14.88;;;;;;;14.79;100.00;99848.34;6166984;23;20096;-71
2021/10/20 05:42:18;;;;;;;24.83;14.57;;;;;;;14.78;100.00;99852.31;6190949;23;20011;-71
2021/10/20 05:44:44;;;;;;;24.85;13.55;;;;;;;14.80;100.00;99849.19;6191610;23;20004;-71
2021/10/20 05:47:09;;;;;;;29.83;14.23;;;;;;;14.81;100.00;99848.84;6191827;23;20013;-71
2021/10/20 05:49:35;;;;;;;23.63;13.43;;;;;;;14.82;100.00;99847.69;6164491;23;20009;-71
2021/10/20 05:52:01;;;;;;;19.52;12.50;;;;;;;14.83;100.00;99848.50;6166506;23;20345;-71
2021/10/20 05:54:27;;;;;;;25.63;13.52;;;;;;;14.84;100.00;99853.75;6141720;23;20016;-71
2021/10/20 05:56:52;;;;;;;27.02;13.00;;;;;;;14.85;100.00;99852.59;6191327;23;20016;-71
2021/10/20 05:59:23;;;;;;;24.77;12.38;;;;;;;14.87;100.00;99852.25;6167069;23;20027;-71
2021/10/20 06:01:50;;;;;;;18.63;12.43;;;;;;;14.88;100.00;99842.72;6167294;23;20009;-71
2021/10/20 06:04:16;;;;;;;21.75;11.85;;;;;;;14.88;100.00;99840.75;6216554;23;20015;-71
2021/10/20 06:06:43;;;;;;;21.48;11.63;;;;;;;14.92;100.00;99840.88;6191819;23;20067;-71
2021/10/20 06:09:08;;;;;;;25.48;12.75;;;;;;;14.92;100.00;99844.47;6168553;23;20005;-71
2021/10/20 06:11:34;;;;;;;19.67;11.60;;;;;;;14.92;100.00;99844.47;6143454;23;20009;-71
2021/10/20 06:13:59;;;;;;;19.35;10.55;;;;;;;14.93;100.00;99843.34;6193389;23;20062;-71
2021/10/20 06:16:25;;;;;;;20.60;10.10;;;;;;;14.95;100.00;99843.81;6168515;23;20445;-71
2021/10/20 06:18:51;;;;;;;19.58;9.95;;;;;;;14.95;100.00;99846.59;6168066;23;20013;-71
2021/10/20 06:21:16;;;;;;;20.60;10.32;;;;;;;14.97;100.00;99843.47;6168531;23;20024;-71
2021/10/20 06:23:42;;;;;;;22.15;11.18;;;;;;;14.97;100.00;99838.69;6166435;23;20355;-72
2021/10/20 06:26:07;;;;;;;20.45;9.63;;;;;;;14.98;100.00;99848.72;6166130;23;20021;-72
2021/10/20 06:28:33;;;;;;;17.45;9.18;;;;;;;14.97;100.00;99852.69;6193245;23;20488;-72
2021/10/20 06:30:59;;;;;;;18.80;8.80;;;;;;;14.98;100.00;99845.91;6143089;23;20030;-73
2021/10/20 06:33:24;;;;;;;20.40;10.18;;;;;;;15.00;100.00;99855.97;6168539;23;20054;-73
2021/10/20 06:35:50;;;;;;;16.60;8.95;;;;;;;15.02;100.00;99862.03;6193297;23;20013;-73
2021/10/20 06:38:15;;;;;;;17.98;8.98;;;;;;;15.03;100.00;99852.47;6192506;23;20418;-73
2021/10/20 06:40:41;;;;;;;24.20;11.75;;;;;;;15.06;100.00;99849.00;6144085;23;20004;-72
2021/10/20 06:43:06;;;;;;;23.35;9.70;;;;;;;15.05;100.00;99853.78;6218599;23;20068;-73
2021/10/20 06:45:32;;;;;;;17.73;9.48;;;;;;;15.05;100.00;99850.19;6142975;23;20016;-73
2021/10/20 06:47:57;;;;;;;20.55;8.90;;;;;;;15.08;100.00;99858.69;6168019;23;20422;-73
2021/10/20 06:50:22;;;;;;;24.45;8.85;;;;;;;15.08;100.00;99858.69;6119088;23;20321;-73
2021/10/20 06:52:48;;;;;;;18.88;8.65;;;;;;;15.09;100.00;99848.31;6167794;23;20008;-73
2021/10/20 06:55:14;;;;;;;20.88;8.32;;;;;;;15.09;100.00;99849.13;6119388;23;20016;-73
2021/10/20 06:57:39;;;;;;;22.15;7.68;;;;;;;15.11;100.00;99846.00;6143544;23;20377;-73
2021/10/20 07:00:05;;;;;;;17.67;7.85;;;;;;;15.10;100.00;99855.53;6167478;23;20008;-73
2021/10/20 07:02:31;;;;;;;22.48;7.55;;;;;;;15.12;100.00;99840.06;6144152;23;20051;-73
2021/10/20 07:04:57;;;;;;;14.60;6.45;;;;;;;15.12;100.00;99842.03;6141524;23;20012;-73
2021/10/20 07:07:22;;;;;;;18.77;6.68;;;;;;;15.14;100.00;99842.53;6191552;23;20001;-73
2021/10/20 07:09:48;;;;;;;19.25;6.65;;;;;;;15.14;100.00;99845.31;6168277;23;20004;-73
2021/10/20 07:12:13;;;;;;;15.88;6.20;;;;;;;15.15;100.00;99839.38;6142953;23;20075;-73
2021/10/20 07:14:39;;;;;;;18.60;6.15;;;;;;;15.15;100.00;99847.75;6118022;23;20015;-73
2021/10/20 07:17:08;;;;;;;20.10;5.97;;;;;;;15.16;100.00;99849.41;6168712;23;20066;-73
2021/10/20 07:19:34;;;;;;;21.13;6.13;;;;;;;15.19;100.00;99845.13;6193285;23;20380;-73
2021/10/20 07:22:00;;;;;;;17.05;6.47;;;;;;;15.18;100.00;99852.69;6167574;23;20012;-73
2021/10/20 07:24:25;;;;;;;14.07;5.35;;;;;;;15.19;100.00;99853.50;6192835;23;20019;-73
2021/10/20 07:26:51;;;;;;;13.95;5.68;;;;;;;15.23;100.00;99848.88;6167546;23;20019;-73
2021/10/20 07:29:17;;;;;;;15.00;5.22;;;;;;;15.24;100.00;99850.53;6143264;23;20008;-73
2021/10/20 07:31:42;;;;;;;16.25;5.47;;;;;;;15.24;100.00;99855.28;6167793;23;20011;-74
2021/10/20 07:34:08;;;;;;;21.83;5.22;;;;;;;15.26;100.00;99852.97;6143002;23;20039;-73
2021/10/20 07:36:33;;;;;;;19.60;5.80;;;;;;;15.30;100.00;99854.75;6168110;23;20005;-72
2021/10/20 07:38:59;;;;;;;17.58;5.20;;;;;;;15.34;100.00;99854.88;6168109;23;20027;-73
2021/10/20 07:41:24;;;;;;;21.25;5.72;;;;;;;15.35;100.00;99856.50;6192358;23;20013;-73
2021/10/20 07:43:50;;;;;;;13.95;4.55;;;;;;;15.37;100.00;99848.59;6143189;23;20043;-73
2021/10/20 07:46:15;;;;;;;21.10;6.10;;;;;;;15.41;100.00;99867.16;6167035;23;20008;-71
2021/10/20 07:48:41;;;;;;;21.85;5.53;;;;;;;15.43;100.00;99858.41;6192116;23;20059;-71
2021/10/20 07:51:06;;;;;;;21.25;5.38;;;;;;;15.49;100.00;99868.25;6167933;23;20008;-71
2021/10/20 07:53:32;;;;;;;18.35;5.40;;;;;;;15.51;100.00;99867.88;6167215;23;20004;-71
2021/10/20 07:55:58;;;;;;;22.45;5.65;;;;;;;15.59;100.00;99872.59;6167616;23;20453;-71
2021/10/20 07:58:23;;;;;;;19.55;5.43;;;;;;;15.61;100.00;99870.28;6167759;23;20039;-71
2021/10/20 08:00:49;;;;;;;22.55;4.70;;;;;;;15.68;100.00;99864.94;6166858;23;20012;-71
2021/10/20 08:03:14;;;;;;;12.75;4.32;;;;;;;15.73;100.00;99877.94;6192428;23;20014;-71
2021/10/20 08:05:40;;;;;;;16.77;5.13;;;;;;;15.81;100.00;99865.81;6167477;23;20078;-71
2021/10/20 08:08:09;;;;;;;20.10;5.38;;;;;;;15.86;100.00;99855.22;6167054;23;20373;-71
2021/10/20 08:10:35;;;;;;;19.60;4.97;;;;;;;15.94;100.00;99853.50;6193083;23;20015;-71
2021/10/20 08:13:00;;;;;;;19.63;5.25;;;;;;;16.01;100.00;99852.94;6143227;23;20038;-74
2021/10/20 08:15:26;;;;;;;16.00;4.22;;;;;;;16.05;100.00;99851.91;6166438;23;20016;-71
2021/10/20 08:17:51;;;;;;;21.27;5.45;;;;;;;16.11;100.00;99855.28;6142998;23;20004;-71
2021/10/20 08:20:19;;;;;;;17.55;4.53;;;;;;;16.16;100.00;99855.06;6191990;23;20059;-71
2021/10/20 08:22:45;;;;;;;20.08;4.22;;;;;;;16.17;100.00;99853.91;6167350;23;20027;-71
2021/10/20 08:25:11;;;;;;;21.95;5.22;;;;;;;16.20;100.00;99852.38;6167490;23;20044;-72
2021/10/20 08:27:37;;;;;;;24.88;4.78;;;;;;;16.24;100.00;99858.91;6142763;23;20004;-72
2021/10/20 08:30:04;;;;;;;19.35;4.30;;;;;;;16.26;100.00;99870.59;6166802;23;20036;-72
2021/10/20 08:32:29;;;;;;;20.13;4.95;;;;;;;16.28;100.00;99865.47;6167671;23;20013;-71
2021/10/20 08:34:55;;;;;;;19.15;4.95;;;;;;;16.28;100.00;99860.69;6166997;23;20043;-72
2021/10/20 08:37:20;;;;;;;21.08;4.22;;;;;;;16.29;100.00;99861.50;6191866;23;20013;-72
2021/10/20 08:39:46;;;;;;;22.25;4.63;;;;;;;16.28;100.00;99871.88;6118500;23;20005;-72
2021/10/20 08:42:11;;;;;;;18.50;4.13;;;;;;;16.26;100.00;99879.81;6167021;23;20047;-72
2021/10/20 08:44:37;;;;;;;23.27;4.68;;;;;;;16.25;100.00;99871.78;6142653;23;20009;-72
2021/10/20 08:47:03;;;;;;;21.70;4.68;;;;;;;16.24;100.00;99876.56;6191559;23;20013;-72
2021/10/20 08:49:28;;;;;;;23.67;4.55;;;;;;;16.24;100.00;99882.16;6167303;23;20039;-72
2021/10/20 08:51:54;;;;;;;17.95;3.83;;;;;;;16.24;100.00;99882.16;6142924;23;20004;-72
2021/10/20 08:54:21;;;;;;;18.75;3.90;;;;;;;16.25;100.00;99867.00;6142528;23;20015;-72
2021/10/20 08:56:46;;;;;;;23.85;4.18;;;;;;;16.27;100.00;99873.06;6191835;23;20079;-72
2021/10/20 08:59:12;;;;;;;14.52;3.88;;;;;;;16.28;100.00;99883.09;6167372;23;20553;-72
2021/10/20 09:01:38;;;;;;;21.48;4.25;;;;;;;16.30;100.00;99875.16;6142042;23;20015;-71
2021/10/20 09:04:05;;;;;;;27.63;8.07;;;;;;;16.36;100.00;99872.16;6166142;23;20004;-72
2021/10/20 09:06:31;;;;;;;24.30;7.28;;;;;;;16.41;100.00;99869.09;6166838;23;20008;-72
2021/10/20 09:08:56;;;;;;;25.05;6.63;;;;;;;16.45;100.00;99864.44;6190948;23;20013;-72
2021/10/20 09:14:04;;;;;;;23.92;5.55;;;;;;;16.61;100.00;99876.59;6143840;23;20004;-72
2021/10/20 09:16:30;;;;;;;17.15;4.53;;;;;;;16.68;100.00;99867.59;6166743;23;20009;-72
2021/10/20 09:18:59;;;;;;;17.42;4.22;;;;;;;16.75;100.00;99863.03;6191624;23;19997;-72
2021/10/20 09:21:26;;;;;;;17.17;3.97;;;;;;;16.83;100.00;99852.09;6142662;23;20303;-72
2021/10/20 09:23:51;;;;;;;22.60;4.20;;;;;;;16.89;100.00;99850.69;6142102;23;20012;-72
2021/10/20 09:26:17;;;;;;;22.50;4.28;;;;;;;16.93;100.00;99854.41;6141833;23;20029;-72
2021/10/20 09:28:42;;;;;;;21.05;4.68;;;;;;;16.97;100.00;99852.53;6142704;23;20012;-72
2021/10/20 09:31:10;;;;;;;17.58;4.20;;;;;;;17.00;100.00;99849.03;6142282;23;20035;-72
2021/10/20 09:33:37;;;;;;;20.20;4.07;;;;;;;17.04;100.00;99852.75;6167482;23;20004;-71
2021/10/20 09:36:04;;;;;;;18.98;4.03;;;;;;;17.06;100.00;99850.41;6166955;23;20008;-71
2021/10/20 09:38:37;;;;;;;20.40;4.20;;;;;;;17.13;100.00;99849.81;6166563;23;20489;-71
2021/10/20 09:41:04;;;;;;;19.67;3.75;;;;;;;17.16;100.00;99849.09;6167052;23;20008;-71
2021/10/20 09:43:29;;;;;;;20.05;4.20;;;;;;;17.22;100.00;99835.63;6168443;23;20012;-71
2021/10/20 09:45:55;;;;;;;22.60;4.00;;;;;;;17.27;100.00;99841.00;6118812;23;20000;-71
2021/10/20 09:48:22;;;;;;;19.30;4.18;;;;;;;17.35;100.00;99834.41;6143824;23;20012;-71
2021/10/20 09:50:54;;;;;;;22.27;4.15;;;;;;;17.40;100.00;99834.16;6193095;23;20016;-71
2021/10/20 09:53:20;;;;;;;22.10;4.30;;;;;;;17.48;100.00;99826.78;6168373;23;20087;-71
2021/10/20 09:55:45;;;;;;;17.15;3.63;;;;;;;17.52;100.00;99830.50;6168966;23;20009;-71
2021/10/20 09:58:12;;;;;;;20.58;3.13;;;;;;;17.55;100.00;99827.81;6168248;23;20437;-71
2021/10/20 10:00:38;;;;;;;20.90;4.20;;;;;;;17.61;100.00;99826.38;6168664;23;20095;-71
2021/10/20 10:03:07;;;;;;;19.33;4.75;;;;;;;17.67;100.00;99824.13;6168917;23;20005;-71
2021/10/20 10:05:32;;;;;;;15.77;3.70;;;;;;;17.73;100.00;99825.50;6193292;23;20011;-71
2021/10/20 10:07:58;;;;;;;19.77;4.13;;;;;;;17.78;100.00;99825.28;6168156;23;20417;-71
2021/10/20 10:10:24;;;;;;;20.10;3.88;;;;;;;17.84;100.00;99809.78;6168841;23;20005;-71
2021/10/20 10:12:53;;;;;;;16.02;3.58;;;;;;;17.90;100.00;99820.75;6168300;23;20040;-73
2021/10/20 10:15:18;;;;;;;22.02;4.25;;;;;;;17.93;100.00;99815.22;6168347;23;20008;-71
2021/10/20 10:17:44;;;;;;;19.70;4.10;;;;;;;17.96;100.00;99813.69;6168009;23;20004;-71
2021/10/20 10:20:15;;;;;;;19.08;4.32;;;;;;;18.00;100.00;99812.63;6143520;23;20004;-71
2021/10/20 10:23:16;;;;;;;20.00;3.75;;;;;;;18.02;99.49;99815.84;6144376;23;20040;-71
2021/10/20 10:25:42;;;;;;;16.05;4.10;;;;;;;18.03;98.94;99808.28;6168489;23;20031;-71
2021/10/20 10:28:17;;;;;;;18.88;4.30;;;;;;;18.04;98.44;99805.09;6143274;23;20322;-71
2021/10/20 10:30:50;;;;;;;19.98;4.10;;;;;;;18.06;98.72;99797.13;6219323;23;20005;-71
2021/10/20 10:33:17;;;;;;;19.92;4.35;;;;;;;18.06;98.37;99808.34;6192513;23;20008;-72
2021/10/20 10:35:43;;;;;;;15.52;3.30;;;;;;;18.10;97.99;99791.59;6143512;23;20038;-71
2021/10/20 10:38:08;;;;;;;27.88;4.53;;;;;;;18.08;97.45;99794.78;6143534;23;20004;-71
2021/10/20 10:40:34;;;;;;;22.67;3.72;;;;;;;18.10;96.93;99800.00;6168366;23;20008;-70
2021/10/20 10:43:07;;;;;;;22.50;3.58;;;;;;;18.07;96.21;99793.13;6167885;23;20067;-68
2021/10/20 10:45:32;;;;;;;18.85;4.18;;;;;;;18.08;96.19;99791.16;6167994;23;20054;-68
2021/10/20 10:48:00;;;;;;;15.27;3.80;;;;;;;18.06;96.43;99799.13;6167863;23;20013;-69
2021/10/20 10:50:53;;;;;;;16.70;3.00;;;;;;;18.04;96.60;99784.59;6143574;23;20005;-68
2021/10/20 10:53:50;;;;;;;17.63;3.08;;;;;;;18.03;96.62;99786.59;6170979;23;20004;-68
2021/10/20 10:56:15;;;;;;;25.23;3.88;;;;;;;18.03;96.53;99794.22;6192148;23;20013;-68
2021/10/20 10:59:01;;;;;;;21.23;3.40;;;;;;;17.98;96.67;99789.69;6167319;23;20008;-69
2021/10/20 11:01:37;;;;;;;17.60;4.10;;;;;;;17.98;96.31;99789.69;6168036;23;20031;-69
2021/10/20 11:04:22;;;;;;;23.67;3.80;;;;;;;17.96;96.55;99797.66;6218435;23;20013;-68
2021/10/20 11:06:54;;;;;;;18.67;3.40;;;;;;;17.95;96.30;99790.41;6192974;23;20012;-68
2021/10/20 11:09:22;;;;;;;22.52;4.10;;;;;;;17.95;96.23;99770.75;6192129;23;20013;-69
2021/10/20 11:11:53;;;;;;;18.98;3.42;;;;;;;17.95;95.63;99778.34;6168672;23;20016;-68